• Join FlightAware (Why Join?)
  • Login
  • US Flag 
12:14AM EDT


 

Airport Tracker/Info


-or-


 

Live Flight TrackerFlight Track Log ✈ SLI2074 ✈ 08-May-2013 ✈ MMMX / MEX - MMLP / LAP

Flight Track Log - Related Links

Times and Time Zones

All times are in EDT time to prevent confusion due to time zone crossing. See the SLI2074 flight status page for this flight to view local times or setup timezone preferences in your user account.

Time Position Orientation Groundspeed Altitude Reporting Facility
EDT Latitude Longitude Course Direction KTS MPH feet Rate Location/Type
11:24PM 19.8442 -99.9710 296° West  Level Estimated
11:25PM 19.8848 -100.0611 296° West  Level Estimated
11:26PM 19.9253 -100.1513 296° West  Level Estimated
11:27PM 19.9657 -100.2415 296° West  Level Estimated
11:28PM 20.0061 -100.3318 295° West  Level Estimated
11:29PM 20.0465 -100.4222 295° West  Level Estimated
11:30PM 20.0868 -100.5125 295° West  Level Estimated
11:31PM 20.1271 -100.6030 295° West  Level Estimated
11:32PM 20.1673 -100.6934 295° West  Level Estimated
11:33PM 20.2075 -100.7839 295° West  Level Estimated
11:34PM 20.2476 -100.8745 295° West  Level Estimated
11:35PM 20.2877 -100.9651 295° West  Level Estimated
11:36PM 20.3278 -101.0557 295° West  Level Estimated
11:37PM 20.3678 -101.1464 295° West  Level Estimated
11:38PM 20.4077 -101.2372 295° West  Level Estimated
11:39PM 20.4476 -101.3280 295° West  Level Estimated
11:40PM 20.4875 -101.4188 295° West  Level Estimated
11:41PM 20.5273 -101.5097 295° West  Level Estimated
11:42PM 20.5670 -101.6007 295° West  Level Estimated
11:43PM 20.6067 -101.6916 295° West  Level Estimated
11:44PM 20.6464 -101.7827 295° West  Level Estimated
11:45PM 20.6860 -101.8737 295° West  Level Estimated
11:46PM 20.7256 -101.9649 295° West  Level Estimated
11:47PM 20.7651 -102.0561 295° West  Level Estimated
11:48PM 20.8046 -102.1473 295° West  Level Estimated
11:49PM 20.8440 -102.2385 295° West  Level Estimated
11:50PM 20.8834 -102.3299 295° West  Level Estimated
11:51PM 20.9227 -102.4212 295° West  Level Estimated
11:52PM 20.9620 -102.5126 295° West  Level Estimated
11:53PM 21.0012 -102.6041 295° West  Level Estimated
11:54PM 21.0404 -102.6956 295° West  Level Estimated
11:55PM 21.0795 -102.7872 295° West  Level Estimated
11:56PM 21.1186 -102.8788 295° West  Level Estimated
11:57PM 21.1576 -102.9704 295° West  Level Estimated
11:58PM 21.1966 -103.0621 295° West  Level Estimated
11:59PM 21.2355 -103.1539 294° West  Level Estimated
12:00AM 21.2744 -103.2457 294° West  Level Estimated
12:01AM 21.3132 -103.3375 294° West  Level Estimated
12:02AM 21.3520 -103.4294 294° West  Level Estimated
12:03AM 21.3908 -103.5213 294° West  Level Estimated
12:04AM 21.4294 -103.6133 294° West  Level Estimated
12:05AM 21.4681 -103.7054 294° West  Level Estimated
12:06AM 21.5066 -103.7975 294° West  Level Estimated
12:07AM 21.5452 -103.8896 294° West  Level Estimated
12:08AM 21.5837 -103.9818 294° West  Level Estimated
12:09AM 21.6221 -104.0740 294° West  Level Estimated
12:10AM 21.6605 -104.1663 294° West  Level Estimated
12:11AM 21.6988 -104.2586 294° West  Level Estimated
12:12AM 21.7371 -104.3510 294° West  Level Estimated
12:13AM 21.7753 -104.4435 294° West  Level Estimated
12:14AM 21.8135 -104.5359 294° West  Level Estimated
12:15AM 21.8516 -104.6285 294° West  Level Estimated
12:16AM 21.8897 -104.7210 294° West  Level Estimated
12:17AM 21.9277 -104.8137 294° West  Level Estimated
12:18AM 21.9657 -104.9063 294° West  Level Estimated
12:19AM 22.0036 -104.9991 294° West  Level Estimated
12:20AM 22.0414 -105.0919 294° West  Level Estimated
12:21AM 22.0793 -105.1847 294° West  Level Estimated
12:22AM 22.1170 -105.2776 294° West  Level Estimated
12:23AM 22.1547 -105.3705 294° West  Level Estimated
12:24AM 22.1924 -105.4635 294° West  Level Estimated
12:25AM 22.2300 -105.5565 294° West  Level Estimated
12:26AM 22.2675 -105.6496 294° West  Level Estimated
12:27AM 22.3050 -105.7427 294° West  Level Estimated
12:28AM 22.3425 -105.8359 293° West  Level Estimated
12:29AM 22.3799 -105.9291 293° West  Level Estimated
12:30AM 22.4172 -106.0224 293° West  Level Estimated
12:31AM 22.4545 -106.1157 293° West  Level Estimated
12:32AM 22.4917 -106.2091 293° West  Level Estimated
12:33AM 22.5289 -106.3026 293° West  Level Estimated
12:34AM 22.5660 -106.3960 293° West  Level Estimated
12:35AM 22.6031 -106.4896 293° West  Level Estimated
12:36AM 22.6401 -106.5831 293° West  Level Estimated
12:37AM 22.6770 -106.6768 293° West  Level Estimated
12:38AM 22.7139 -106.7704 293° West  Level Estimated
12:39AM 22.7508 -106.8642 293° West  Level Estimated
12:40AM 22.7876 -106.9580 293° West  Level Estimated
12:41AM 22.8243 -107.0518 293° West  Level Estimated
12:42AM 22.8610 -107.1457 293° West  Level Estimated
12:43AM 22.8977 -107.2396 293° West  Level Estimated
12:44AM 22.9342 -107.3336 293° West  Level Estimated
12:45AM 22.9708 -107.4276 293° West  Level Estimated
12:46AM 23.0072 -107.5217 293° West  Level Estimated
12:47AM 23.0436 -107.6158 293° West  Level Estimated
12:48AM 23.0800 -107.7100 293° West  Level Estimated
12:49AM 23.1163 -107.8043 293° West  Level Estimated
12:50AM 23.1525 -107.8986 293° West  Level Estimated
12:51AM 23.1887 -107.9929 293° West  Level Estimated
12:52AM 23.2248 -108.0873 293° West  Level Estimated
12:53AM 23.2609 -108.1817 293° West  Level Estimated
12:54AM 23.2969 -108.2762 293° West  Level Estimated
12:55AM 23.3329 -108.3708 293° West  Level Estimated
12:56AM 23.3688 -108.4653 292° West  Level Estimated
12:57AM 23.4046 -108.5600 292° West  Level Estimated
12:58AM 23.4404 -108.6547 292° West  Level Estimated
12:59AM 23.4762 -108.7494 292° West  Level Estimated
01:00AM 23.5118 -108.8442 292° West  Level Estimated
01:01AM 23.5474 -108.9391 292° West  Level Estimated
01:02AM 23.5830 -109.0340 292° West  Level Estimated
01:03AM 23.6185 -109.1289 292° West  Level Estimated
01:04AM 23.6539 -109.2239 292° West  Level Estimated
01:05AM 23.6893 -109.3190 292° West  Level Estimated
01:06AM 23.7247 -109.4141 292° West  Level Estimated
01:07AM 23.7599 -109.5093 292° West  Level Estimated
01:08AM 23.7951 -109.6045 292° West  Level Estimated
01:09AM 23.8303 -109.6997 292° West  Level Estimated
01:10AM 23.8654 -109.7951 292° West  Level Estimated
01:11AM 23.9004 -109.8904 292° West  Level Estimated
01:12AM 23.9354 -109.9858 292° West  Level Estimated
01:13AM 23.9703 -110.0813 292° West  Level Estimated
01:14AM 24.0052 -110.1768 292° West  Level Estimated
01:15AM 24.0400 -110.2724 292° West  Level Estimated
01:16AM 24.0727 -110.3625 292° West  Level Estimated
01:17AM 24.0727 -110.3625 49° Northeast  Level Estimated
01:18AM 24.0727 -110.3625 49° Northeast  Level Estimated
01:19AM 24.0727 -110.3625 49° Northeast  Level Estimated
01:20AM 24.0727 -110.3625 49° Northeast  Level Estimated
01:21AM 24.0727 -110.3625 49° Northeast  Level Estimated
01:22AM 24.0727 -110.3625 49° Northeast  Level Estimated
01:23AM 24.0727 -110.3625 49° Northeast  Level Estimated
01:24AM 24.0727 -110.3625 49° Northeast  Level Estimated
01:25AM 24.0727 -110.3625 49° Northeast  Level Estimated
01:26AM 24.0727 -110.3625 49° Northeast  Level Estimated
01:27AM 24.0727 -110.3625 49° Northeast  Level Estimated